createdAt,value
2023-04-20T00:02:34.316Z,64.70
2023-04-20T00:07:41.527Z,63.90
2023-04-20T00:12:44.874Z,63.90
2023-04-20T00:17:48.713Z,63.90
2023-04-20T00:22:53.354Z,64.00
2023-04-20T00:27:56.579Z,64.00
2023-04-20T00:32:59.916Z,63.90
2023-04-20T00:38:04.596Z,63.90
2023-04-20T00:43:11.995Z,63.80
2023-04-20T00:48:15.306Z,63.70
2023-04-20T00:53:20.400Z,63.60
2023-04-20T00:58:25.564Z,63.50
2023-04-20T01:03:29.016Z,63.40
2023-04-20T01:08:33.626Z,63.20
2023-04-20T01:13:40.550Z,63.20
2023-04-20T01:18:46.560Z,63.00
2023-04-20T01:23:51.409Z,63.00
2023-04-20T01:28:54.656Z,62.90
2023-04-20T01:33:57.897Z,62.90
2023-04-20T01:39:02.646Z,62.90
2023-04-20T01:44:06.034Z,62.80
2023-04-20T01:49:10.071Z,62.80
2023-04-20T01:54:15.045Z,63.70
2023-04-20T01:59:18.467Z,62.70
2023-04-20T02:04:22.076Z,62.70
2023-04-20T02:09:27.137Z,62.70
2023-04-20T02:14:30.486Z,62.70
2023-04-20T02:19:34.776Z,62.80
2023-04-20T02:24:39.462Z,62.70
2023-04-20T02:29:42.735Z,62.80
2023-04-20T02:34:46.298Z,62.70
2023-04-20T02:39:51.229Z,62.80
2023-04-20T02:44:54.486Z,62.80
2023-04-20T02:49:58.018Z,62.90
2023-04-20T02:55:02.725Z,62.90
2023-04-20T03:00:08.863Z,62.80
2023-04-20T03:05:28.723Z,62.90
2023-04-20T03:10:33.627Z,62.90
2023-04-20T03:15:48.565Z,62.90
2023-04-20T03:21:08.291Z,63.00
2023-04-20T03:26:13.598Z,62.90
2023-04-20T03:31:25.678Z,62.90
2023-04-20T03:36:32.045Z,62.90
2023-04-20T03:41:37.196Z,62.90
2023-04-20T03:46:41.138Z,63.00
2023-04-20T03:51:44.417Z,62.90
2023-04-20T03:56:49.767Z,63.00
2023-04-20T04:01:54.257Z,63.00
2023-04-20T04:06:57.741Z,63.10
2023-04-20T04:12:04.687Z,63.00
2023-04-20T04:17:08.873Z,63.20
2023-04-20T04:22:16.625Z,63.20
2023-04-20T04:27:39.913Z,63.30
2023-04-20T04:32:44.725Z,63.30
2023-04-20T04:37:48.950Z,63.40
2023-04-20T04:42:55.691Z,63.50
2023-04-20T04:47:59.970Z,63.60
2023-04-20T04:53:03.290Z,63.70
2023-04-20T04:58:08.138Z,63.70
2023-04-20T05:03:11.885Z,63.80
2023-04-20T05:08:15.207Z,63.80
2023-04-20T05:13:19.718Z,63.80
2023-04-20T05:18:24.204Z,63.90
2023-04-20T05:23:27.485Z,63.90
2023-04-20T05:28:32.092Z,64.70
2023-04-20T05:33:35.388Z,63.90
2023-04-20T05:38:38.857Z,63.90
2023-04-20T05:43:43.493Z,63.90
2023-04-20T05:48:46.817Z,64.10
2023-04-20T05:53:50.041Z,64.00
2023-04-20T05:58:55.088Z,64.10
2023-04-20T06:03:58.567Z,64.20
2023-04-20T06:09:02.095Z,64.20
2023-04-20T06:14:06.699Z,64.20
2023-04-20T06:19:09.944Z,64.30
2023-04-20T06:24:13.202Z,64.30
2023-04-20T06:29:17.943Z,64.20
2023-04-20T06:34:21.209Z,64.30
2023-04-20T06:39:25.224Z,65.80
2023-04-20T06:44:29.815Z,67.70
2023-04-20T06:49:33.076Z,69.40
2023-04-20T06:54:36.364Z,69.70
2023-04-20T06:59:41.245Z,70.00
2023-04-20T07:04:44.872Z,68.20
2023-04-20T07:09:48.086Z,66.70
2023-04-20T07:14:52.946Z,65.50
2023-04-20T07:19:56.511Z,64.40
2023-04-20T07:24:59.819Z,63.80
2023-04-20T07:30:06.427Z,63.40
2023-04-20T07:35:10.586Z,62.90
2023-04-20T07:40:14.108Z,63.00
2023-04-20T07:45:18.682Z,63.10
2023-04-20T07:50:22.435Z,63.00
2023-04-20T07:55:25.871Z,63.10
2023-04-20T08:00:30.814Z,63.20
2023-04-20T08:05:34.251Z,63.30
2023-04-20T08:10:38.159Z,63.50
2023-04-20T08:15:43.213Z,63.80
2023-04-20T08:20:47.145Z,64.10
2023-04-20T08:25:50.597Z,64.50
2023-04-20T08:30:55.584Z,65.30
2023-04-20T08:36:00.989Z,66.60
2023-04-20T08:41:04.369Z,68.50
2023-04-20T08:46:09.949Z,68.60
2023-04-20T08:51:16.065Z,68.00
2023-04-20T08:56:20.319Z,68.40
2023-04-20T09:01:35.603Z,67.70
2023-04-20T09:06:45.136Z,65.90
2023-04-20T09:11:48.784Z,65.30
2023-04-20T09:16:54.406Z,65.10
2023-04-20T09:21:59.146Z,64.50
2023-04-20T09:27:03.173Z,64.10
2023-04-20T09:32:07.975Z,64.10
2023-04-20T09:37:11.748Z,66.90
2023-04-20T09:42:16.593Z,68.20
2023-04-20T09:47:26.049Z,68.60
2023-04-20T09:52:29.405Z,68.20
2023-04-20T09:57:33.701Z,67.30
2023-04-20T10:02:38.905Z,66.30
2023-04-20T10:07:42.257Z,65.20
2023-04-20T10:12:49.380Z,64.40
2023-04-20T10:17:55.125Z,62.60
2023-04-20T10:23:09.737Z,62.10
2023-04-20T10:28:13.196Z,60.30
2023-04-20T10:33:18.275Z,60.90
2023-04-20T10:38:30.680Z,60.70
2023-04-20T10:43:35.358Z,59.60
2023-04-20T10:48:40.694Z,59.80
2023-04-20T10:53:43.870Z,59.00
2023-04-20T10:58:47.254Z,58.70
2023-04-20T11:03:54.869Z,57.60
2023-04-20T11:08:58.269Z,55.70
2023-04-20T11:14:08.782Z,56.10
2023-04-20T11:19:13.446Z,54.70
2023-04-20T11:24:20.901Z,55.50
2023-04-20T11:29:33.216Z,55.30
2023-04-20T11:34:39.965Z,54.50
2023-04-20T11:39:44.264Z,55.60
2023-04-20T11:44:47.471Z,55.80
2023-04-20T11:49:52.278Z,55.80
2023-04-20T11:54:55.557Z,55.50
2023-04-20T11:59:58.749Z,56.00
2023-04-20T12:05:03.767Z,56.00
2023-04-20T12:10:08.588Z,56.30
2023-04-20T12:15:12.913Z,56.40
2023-04-20T12:20:17.509Z,56.40
2023-04-20T12:25:21.011Z,56.80
2023-04-20T12:30:24.496Z,55.50
2023-04-20T12:35:29.171Z,56.50
2023-04-20T12:40:32.654Z,54.30
2023-04-20T12:45:36.231Z,53.40
2023-04-20T12:50:41.262Z,53.10
2023-04-20T12:55:44.618Z,52.70
2023-04-20T13:00:47.946Z,52.80
2023-04-20T13:05:52.554Z,53.00
2023-04-20T13:10:55.802Z,52.70
2023-04-20T13:15:59.163Z,52.60
2023-04-20T13:21:04.082Z,52.90
2023-04-20T13:26:08.714Z,53.30
2023-04-20T13:31:11.980Z,53.90
2023-04-20T13:36:16.705Z,54.00
2023-04-20T13:41:20.339Z,54.10
2023-04-20T13:46:23.648Z,53.60
2023-04-20T13:51:28.867Z,53.60
2023-04-20T13:56:32.026Z,53.30
2023-04-20T14:01:35.444Z,53.20
2023-04-20T14:06:40.266Z,53.00
2023-04-20T14:11:43.799Z,52.60
2023-04-20T14:16:47.994Z,52.20
2023-04-20T14:21:52.697Z,51.60
2023-04-20T14:26:56.820Z,50.90
2023-04-20T14:32:00.201Z,50.70
2023-04-20T14:37:04.918Z,50.70
2023-04-20T14:42:08.725Z,50.50
2023-04-20T14:47:11.957Z,50.70
2023-04-20T14:52:16.596Z,50.60
2023-04-20T14:57:21.850Z,50.60
2023-04-20T15:02:25.585Z,50.80
2023-04-20T15:07:30.401Z,51.00
2023-04-20T15:12:33.552Z,51.10
2023-04-20T15:17:36.896Z,51.00
2023-04-20T15:22:41.524Z,51.10
2023-04-20T15:27:44.907Z,51.20
2023-04-20T15:32:48.168Z,51.40
2023-04-20T15:37:52.914Z,51.60
2023-04-20T15:42:56.156Z,51.70
2023-04-20T15:48:00.987Z,52.70
2023-04-20T15:53:07.509Z,52.20
2023-04-20T15:58:11.075Z,52.30
2023-04-20T16:03:14.616Z,52.60
2023-04-20T16:08:21.187Z,52.50
2023-04-20T16:13:26.146Z,52.60
2023-04-20T16:18:30.023Z,52.80
2023-04-20T16:23:34.789Z,52.90
2023-04-20T16:28:38.228Z,52.90
2023-04-20T16:33:41.656Z,53.20
2023-04-20T16:38:46.732Z,53.30
2023-04-20T16:43:52.062Z,53.40
2023-04-20T16:48:55.436Z,53.30
2023-04-20T16:54:01.608Z,53.50
2023-04-20T16:59:05.701Z,53.60
2023-04-20T17:04:09.383Z,53.50
2023-04-20T17:09:14.582Z,53.70
2023-04-20T17:14:18.097Z,53.70
2023-04-20T17:19:21.492Z,53.80
2023-04-20T17:24:26.103Z,53.90
2023-04-20T17:29:35.010Z,54.00
2023-04-20T17:34:40.048Z,54.20
2023-04-20T17:39:45.613Z,54.20
2023-04-20T17:44:49.585Z,54.40
2023-04-20T17:49:53.028Z,54.40
2023-04-20T17:55:02.413Z,54.50
2023-04-20T18:00:09.217Z,54.50
2023-04-20T18:05:16.300Z,54.70
2023-04-20T18:10:21.396Z,55.00
2023-04-20T18:15:25.694Z,55.20
2023-04-20T18:20:31.140Z,55.10
2023-04-20T18:25:37.944Z,55.20
2023-04-20T18:30:44.943Z,55.40
2023-04-20T18:35:48.991Z,55.30
2023-04-20T18:40:54.869Z,55.60
2023-04-20T18:45:59.072Z,55.70
2023-04-20T18:51:03.928Z,55.80
2023-04-20T18:56:10.293Z,56.20
2023-04-20T19:01:14.901Z,57.50
2023-04-20T19:06:20.156Z,58.70
2023-04-20T19:11:26.678Z,58.60
2023-04-20T19:16:32.637Z,58.50
2023-04-20T19:21:39.640Z,58.60
2023-04-20T19:26:46.282Z,58.30
2023-04-20T19:31:51.991Z,58.70
2023-04-20T19:36:56.484Z,58.70
2023-04-20T19:42:01.984Z,58.90
2023-04-20T19:47:06.722Z,58.50
2023-04-20T19:52:10.616Z,57.80
2023-04-20T19:57:16.580Z,57.50
2023-04-20T20:02:21.069Z,57.70
2023-04-20T20:07:26.824Z,57.60
2023-04-20T20:12:32.032Z,57.60
2023-04-20T20:17:37.891Z,57.80
2023-04-20T20:22:41.581Z,57.70
2023-04-20T20:27:47.227Z,57.80
2023-04-20T20:32:51.276Z,57.80
2023-04-20T20:37:55.972Z,57.90
2023-04-20T20:43:00.877Z,58.70
2023-04-20T20:48:04.257Z,58.40
2023-04-20T20:53:07.651Z,58.40
2023-04-20T20:58:12.280Z,58.60
2023-04-20T21:03:15.743Z,58.60
2023-04-20T21:08:19.116Z,58.80
2023-04-20T21:13:23.884Z,58.80
2023-04-20T21:18:28.499Z,59.10
2023-04-20T21:23:31.818Z,59.10
2023-04-20T21:28:36.429Z,59.20
2023-04-20T21:33:39.867Z,59.40
2023-04-20T21:38:43.121Z,59.40
2023-04-20T21:43:47.803Z,59.50
2023-04-20T21:48:52.183Z,59.80
2023-04-20T21:53:55.752Z,59.80
2023-04-20T21:59:00.323Z,59.90
2023-04-20T22:04:04.648Z,60.10
2023-04-20T22:09:08.121Z,59.90
2023-04-20T22:14:12.771Z,60.00
2023-04-20T22:19:16.362Z,60.30
2023-04-20T22:24:19.793Z,60.50
2023-04-20T22:29:24.506Z,60.60
2023-04-20T22:34:27.755Z,60.80
2023-04-20T22:39:31.000Z,60.70
2023-04-20T22:44:35.560Z,60.80
2023-04-20T22:49:38.761Z,61.10
2023-04-20T22:54:42.021Z,61.00
2023-04-20T22:59:46.707Z,61.30
2023-04-20T23:04:49.987Z,61.30
2023-04-20T23:09:53.852Z,61.30
2023-04-20T23:15:00.673Z,61.50
2023-04-20T23:20:04.512Z,62.20
2023-04-20T23:25:09.895Z,61.90
2023-04-20T23:30:15.427Z,62.20
2023-04-20T23:35:19.814Z,62.30
2023-04-20T23:40:23.220Z,62.20
2023-04-20T23:45:28.573Z,62.20
2023-04-20T23:50:32.201Z,62.60
2023-04-20T23:55:35.601Z,62.80
